createdAt,value
2019-04-25T00:02:01.850Z,100237.16
2019-04-25T00:04:31.521Z,100247.70
2019-04-25T00:07:00.135Z,100265.19
2019-04-25T00:09:31.795Z,100271.02
2019-04-25T00:12:02.151Z,100277.04
2019-04-25T00:14:31.442Z,100287.39
2019-04-25T00:17:01.727Z,100291.80
2019-04-25T00:19:31.602Z,100300.25
2019-04-25T00:22:05.464Z,100321.98
2019-04-25T00:24:44.950Z,100310.86
2019-04-25T00:27:13.760Z,100309.75
2019-04-25T00:29:43.949Z,100296.63
2019-04-25T00:32:12.559Z,100280.26
2019-04-25T00:34:44.255Z,100270.59
2019-04-25T00:37:12.255Z,100275.84
2019-04-25T00:39:44.784Z,100264.26
2019-04-25T00:42:12.197Z,100264.37
2019-04-25T00:44:43.501Z,100262.48
2019-04-25T00:47:11.751Z,100265.48
2019-04-25T00:49:42.107Z,100271.31
2019-04-25T00:52:11.622Z,100280.77
2019-04-25T00:54:41.450Z,100298.48
2019-04-25T00:57:12.073Z,100303.22
2019-04-25T00:59:49.718Z,100297.08
2019-04-25T01:02:31.410Z,100300.92
2019-04-25T01:05:01.678Z,100291.30
2019-04-25T01:07:34.069Z,100288.53
2019-04-25T01:10:02.467Z,100284.28
2019-04-25T01:12:31.396Z,100279.97
2019-04-25T01:15:01.553Z,100270.67
2019-04-25T01:17:31.464Z,100263.31
2019-04-25T01:20:00.095Z,100281.72
2019-04-25T01:22:28.567Z,100236.97
2019-04-25T01:24:57.293Z,100231.01
2019-04-25T01:27:25.748Z,100237.03
2019-04-25T01:29:55.293Z,100237.16
2019-04-25T01:32:30.675Z,100245.41
2019-04-25T01:35:09.357Z,100253.14
2019-04-25T01:38:06.201Z,100262.11
2019-04-25T01:40:45.807Z,100271.17
2019-04-25T01:43:38.033Z,100285.25
2019-04-25T01:46:06.513Z,100297.94
2019-04-25T01:48:35.142Z,100323.23
2019-04-25T01:51:04.096Z,100330.84
2019-04-25T01:53:33.859Z,100328.36
2019-04-25T01:56:07.464Z,100331.31
2019-04-25T01:58:33.771Z,100351.34
2019-04-25T02:01:03.157Z,100346.93
2019-04-25T02:03:34.250Z,100364.69
2019-04-25T02:06:04.777Z,100371.95
2019-04-25T02:08:34.075Z,100370.85
2019-04-25T02:11:20.486Z,100373.61
2019-04-25T02:13:49.075Z,100374.28
2019-04-25T02:16:17.720Z,100393.25
2019-04-25T02:18:46.218Z,100383.23
2019-04-25T02:21:14.668Z,100396.83
2019-04-25T02:23:44.178Z,100420.93
2019-04-25T02:26:18.219Z,100401.80
2019-04-25T02:28:43.743Z,100413.59
2019-04-25T02:31:17.597Z,100406.78
2019-04-25T02:33:44.305Z,100408.39
2019-04-25T02:36:15.053Z,100407.77
2019-04-25T02:38:44.191Z,100412.03
2019-04-25T02:41:14.702Z,100418.01
2019-04-25T02:43:45.058Z,100409.23
2019-04-25T02:46:31.022Z,100415.64
2019-04-25T02:49:31.709Z,100410.52
2019-04-25T02:52:03.555Z,100416.49
2019-04-25T02:54:31.834Z,100426.41
2019-04-25T02:57:00.497Z,100415.74
2019-04-25T02:59:29.473Z,100415.59
2019-04-25T03:01:59.159Z,100416.27
2019-04-25T03:04:27.687Z,100411.34
2019-04-25T03:06:58.417Z,100418.51
2019-04-25T03:09:26.628Z,100424.28
2019-04-25T03:11:55.169Z,100420.52
2019-04-25T03:14:26.367Z,100417.11
2019-04-25T03:16:54.412Z,100418.75
2019-04-25T03:19:34.221Z,100416.11
2019-04-25T03:22:08.388Z,100419.07
2019-04-25T03:24:35.169Z,100425.97
2019-04-25T03:27:05.220Z,100413.83
2019-04-25T03:29:34.255Z,100418.91
2019-04-25T03:32:08.796Z,100416.87
2019-04-25T03:34:35.166Z,100406.13
2019-04-25T03:37:05.320Z,100409.45
2019-04-25T03:39:34.312Z,100415.95
2019-04-25T03:42:04.281Z,100416.47
2019-04-25T03:44:33.801Z,100422.76
2019-04-25T03:47:05.258Z,100425.73
2019-04-25T03:49:33.668Z,100432.14
2019-04-25T03:52:02.867Z,100437.91
2019-04-25T03:54:33.410Z,100440.23
2019-04-25T03:57:02.348Z,100440.47
2019-04-25T03:59:33.595Z,100437.91
2019-04-25T04:02:03.062Z,100436.63
2019-04-25T04:04:33.520Z,100438.55
2019-04-25T04:07:04.418Z,100443.76
2019-04-25T04:09:33.823Z,100444.59
2019-04-25T04:12:04.298Z,100455.69
2019-04-25T04:14:33.842Z,100450.97
2019-04-25T04:17:14.440Z,100459.70
2019-04-25T04:19:50.170Z,100457.22
2019-04-25T04:22:27.967Z,100466.59
2019-04-25T04:24:58.141Z,100474.25
2019-04-25T04:27:26.727Z,100480.03
2019-04-25T04:29:55.477Z,100485.48
2019-04-25T04:32:24.296Z,100500.95
2019-04-25T04:34:53.680Z,100512.13
2019-04-25T04:37:23.653Z,100515.01
2019-04-25T04:39:53.646Z,100513.56
2019-04-25T04:42:23.698Z,100510.75
2019-04-25T04:44:53.421Z,100516.16
2019-04-25T04:47:23.564Z,100521.44
2019-04-25T04:49:54.015Z,100525.75
2019-04-25T04:52:25.489Z,100524.66
2019-04-25T04:55:03.702Z,100533.11
2019-04-25T04:57:32.561Z,100529.35
2019-04-25T04:59:53.693Z,100536.94
2019-04-25T05:02:39.584Z,100539.84
2019-04-25T05:05:25.403Z,100539.46
2019-04-25T05:07:59.555Z,100543.11
2019-04-25T05:10:28.020Z,100550.66
2019-04-25T05:12:56.523Z,100557.78
2019-04-25T05:15:25.221Z,100458.11
2019-04-25T05:17:54.273Z,100577.25
2019-04-25T05:20:24.179Z,100584.30
2019-04-25T05:22:53.319Z,100590.85
2019-04-25T05:25:24.597Z,100589.63
2019-04-25T05:28:00.796Z,100593.28
2019-04-25T05:30:29.717Z,100594.06
2019-04-25T05:32:58.314Z,100599.16
2019-04-25T05:35:26.970Z,100611.11
2019-04-25T05:37:55.443Z,100613.83
2019-04-25T05:40:24.494Z,100612.27
2019-04-25T05:43:03.318Z,100615.52
2019-04-25T05:45:33.866Z,100618.61
2019-04-25T05:48:05.683Z,100627.88
2019-04-25T05:50:33.852Z,100634.97
2019-04-25T05:53:04.164Z,100636.57
2019-04-25T05:55:34.140Z,100639.98
2019-04-25T05:58:03.845Z,100638.27
2019-04-25T06:00:34.134Z,100637.34
2019-04-25T06:03:03.618Z,100639.55
2019-04-25T06:05:33.510Z,100646.14
2019-04-25T06:08:04.140Z,100649.88
2019-04-25T06:10:54.602Z,100655.41
2019-04-25T06:13:39.668Z,100658.59
2019-04-25T06:16:13.412Z,100663.00
2019-04-25T06:18:51.323Z,100667.16
2019-04-25T06:21:20.032Z,100667.02
2019-04-25T06:24:16.857Z,100668.14
2019-04-25T06:27:11.412Z,100672.03
2019-04-25T06:29:39.909Z,100678.09
2019-04-25T06:32:08.710Z,100679.07
2019-04-25T06:34:37.366Z,100678.39
2019-04-25T06:37:06.253Z,100680.52
2019-04-25T06:39:34.909Z,100681.20
2019-04-25T06:42:04.018Z,100688.52
2019-04-25T06:44:43.890Z,100686.16
2019-04-25T06:47:38.716Z,100683.30
2019-04-25T06:50:07.479Z,100677.09
2019-04-25T06:52:36.224Z,100683.83
2019-04-25T06:55:05.318Z,100686.48
2019-04-25T06:57:34.194Z,100684.96
2019-04-25T07:00:04.340Z,100688.09
2019-04-25T07:02:33.579Z,100692.14
2019-04-25T07:05:03.996Z,100688.44
2019-04-25T07:07:34.880Z,100689.97
2019-04-25T07:10:03.602Z,100702.38
2019-04-25T07:12:34.447Z,100700.73
2019-04-25T07:15:03.874Z,100703.06
2019-04-25T07:17:34.326Z,100697.59
2019-04-25T07:20:03.900Z,100700.20
2019-04-25T07:22:34.776Z,100702.41
2019-04-25T07:25:03.619Z,100692.00
2019-04-25T07:27:44.762Z,100686.09
2019-04-25T07:30:46.843Z,100689.11
2019-04-25T07:33:15.384Z,100686.09
2019-04-25T07:35:43.835Z,100683.80
2019-04-25T07:38:13.958Z,100678.86
2019-04-25T07:40:43.369Z,100679.17
2019-04-25T07:43:13.403Z,100689.56
2019-04-25T07:45:43.465Z,100683.31
2019-04-25T07:48:13.853Z,100690.05
2019-04-25T07:50:43.863Z,100688.92
2019-04-25T07:53:14.268Z,100688.92
2019-04-25T07:55:43.318Z,100696.88
2019-04-25T07:58:11.816Z,100692.86
2019-04-25T08:00:40.281Z,100694.08
2019-04-25T08:03:08.773Z,100693.59
2019-04-25T08:05:37.891Z,100688.13
2019-04-25T08:08:06.632Z,100693.39
2019-04-25T08:10:56.068Z,100680.74
2019-04-25T08:13:26.330Z,100694.03
2019-04-25T08:15:55.815Z,100691.72
2019-04-25T08:18:25.420Z,100687.86
2019-04-25T08:20:54.161Z,100688.31
2019-04-25T08:23:23.819Z,100683.78
2019-04-25T08:25:52.320Z,100686.19
2019-04-25T08:28:20.796Z,100691.03
2019-04-25T08:30:49.500Z,100693.45
2019-04-25T08:33:17.950Z,100684.72
2019-04-25T08:36:03.646Z,100686.67
2019-04-25T08:38:16.640Z,100687.65
2019-04-25T08:40:45.330Z,100683.55
2019-04-25T08:43:14.672Z,100682.97
2019-04-25T08:45:44.261Z,100683.93
2019-04-25T08:48:13.588Z,100678.40
2019-04-25T08:51:01.666Z,100672.86
2019-04-25T08:53:36.593Z,100678.40
2019-04-25T08:56:11.535Z,100682.84
2019-04-25T08:58:45.981Z,100676.72
2019-04-25T09:01:34.210Z,100684.18
2019-04-25T09:04:13.323Z,100675.72
2019-04-25T09:06:42.296Z,100678.05
2019-04-25T09:09:10.723Z,100684.64
2019-04-25T09:11:40.126Z,100686.14
2019-04-25T09:14:08.613Z,100693.11
2019-04-25T09:16:37.888Z,100694.63
2019-04-25T09:19:06.419Z,100692.62
2019-04-25T09:21:36.593Z,100699.25
2019-04-25T09:24:05.310Z,100696.27
2019-04-25T09:26:36.088Z,100691.73
2019-04-25T09:29:16.333Z,100691.07
2019-04-25T09:31:37.536Z,100676.11
2019-04-25T09:34:05.226Z,100690.98
2019-04-25T09:36:33.747Z,100678.98
2019-04-25T09:39:08.122Z,100677.63
2019-04-25T09:41:36.663Z,100683.41
2019-04-25T09:44:06.796Z,100691.02
2019-04-25T09:46:37.219Z,100692.19
2019-04-25T09:49:14.185Z,100683.59
2019-04-25T09:51:47.028Z,100693.72
2019-04-25T09:54:46.829Z,100699.84
2019-04-25T09:57:53.249Z,100699.94
2019-04-25T10:00:38.996Z,100697.58
2019-04-25T10:03:07.475Z,100602.95
2019-04-25T10:05:36.996Z,100692.91
2019-04-25T10:08:05.593Z,100682.62
2019-04-25T10:10:34.168Z,100691.94
2019-04-25T10:13:04.211Z,100690.14
2019-04-25T10:15:54.695Z,100679.22
2019-04-25T10:18:23.413Z,100683.39
2019-04-25T10:20:51.982Z,100685.64
2019-04-25T10:23:20.453Z,100686.27
2019-04-25T10:25:49.189Z,100581.66
2019-04-25T10:28:17.794Z,100685.26
2019-04-25T10:30:46.923Z,100683.72
2019-04-25T10:33:15.411Z,100690.63
2019-04-25T10:35:50.680Z,100689.83
2019-04-25T10:38:14.389Z,100692.39
2019-04-25T10:40:45.148Z,100691.91
2019-04-25T10:43:14.485Z,100683.75
2019-04-25T10:45:44.779Z,100683.99
2019-04-25T10:48:13.669Z,100687.13
2019-04-25T10:50:42.254Z,100683.92
2019-04-25T10:53:10.726Z,100688.95
2019-04-25T10:55:39.167Z,100674.76
2019-04-25T10:58:07.834Z,100680.02
2019-04-25T11:00:38.284Z,100688.08
2019-04-25T11:03:18.080Z,100680.67
2019-04-25T11:05:47.585Z,100676.55
2019-04-25T11:08:16.926Z,100673.10
2019-04-25T11:10:47.502Z,100682.09
2019-04-25T11:13:15.986Z,100674.48
2019-04-25T11:15:44.917Z,100669.05
2019-04-25T11:18:15.218Z,100677.59
2019-04-25T11:20:44.689Z,100681.52
2019-04-25T11:23:13.974Z,100687.61
2019-04-25T11:25:43.548Z,100688.16
2019-04-25T11:28:14.413Z,100686.30
2019-04-25T11:30:45.180Z,100685.86
2019-04-25T11:33:14.297Z,100679.06
2019-04-25T11:35:43.939Z,100682.73
2019-04-25T11:38:15.307Z,100679.28
2019-04-25T11:40:51.272Z,100668.08
2019-04-25T11:43:19.474Z,100667.53
2019-04-25T11:45:47.942Z,100674.42
2019-04-25T11:48:16.425Z,100673.97
2019-04-25T11:50:48.986Z,100677.58
2019-04-25T11:53:15.109Z,100657.30
2019-04-25T11:55:43.640Z,100656.81
2019-04-25T11:58:14.153Z,100659.39
2019-04-25T12:00:43.496Z,100651.20
2019-04-25T12:03:12.938Z,100663.70
2019-04-25T12:05:42.954Z,100665.39
2019-04-25T12:08:11.593Z,100658.84
2019-04-25T12:10:42.874Z,100666.57
2019-04-25T12:13:13.346Z,100669.91
2019-04-25T12:15:43.396Z,100660.02
2019-04-25T12:18:13.707Z,100669.50
2019-04-25T12:20:42.239Z,100674.99
2019-04-25T12:23:10.757Z,100676.09
2019-04-25T12:25:39.414Z,100674.95
2019-04-25T12:28:07.889Z,100678.52
2019-04-25T12:30:40.074Z,100683.16
2019-04-25T12:33:18.416Z,100680.13
2019-04-25T12:35:36.806Z,100682.09
2019-04-25T12:38:05.366Z,100691.79
2019-04-25T12:40:34.342Z,100683.90
2019-04-25T12:43:03.154Z,100680.31
2019-04-25T12:46:01.136Z,100690.82
2019-04-25T12:48:29.781Z,100692.47
2019-04-25T12:50:58.249Z,100679.24
2019-04-25T12:53:26.702Z,100685.63
2019-04-25T12:55:56.142Z,100681.25
2019-04-25T12:58:24.633Z,100676.55
2019-04-25T13:00:57.176Z,100678.78
2019-04-25T13:03:24.167Z,100676.84
2019-04-25T13:05:52.708Z,100677.18
2019-04-25T13:08:21.186Z,100673.62
2019-04-25T13:10:49.834Z,100675.56
2019-04-25T13:13:18.290Z,100678.30
2019-04-25T13:15:46.757Z,100679.12
2019-04-25T13:18:15.239Z,100679.96
2019-04-25T13:20:43.706Z,100673.87
2019-04-25T13:23:14.352Z,100676.33
2019-04-25T13:25:44.155Z,100694.00
2019-04-25T13:28:37.808Z,100677.08
2019-04-25T13:31:24.208Z,100677.64
2019-04-25T13:34:01.813Z,100669.35
2019-04-25T13:36:45.030Z,100677.91
2019-04-25T13:39:18.628Z,100671.19
2019-04-25T13:41:47.086Z,100669.47
2019-04-25T13:44:15.570Z,100670.83
2019-04-25T13:46:44.023Z,100669.33
2019-04-25T13:49:14.108Z,100669.79
2019-04-25T13:51:42.661Z,100658.89
2019-04-25T13:54:11.123Z,100668.55
2019-04-25T13:56:40.690Z,100666.87
2019-04-25T13:59:09.517Z,100660.24
2019-04-25T14:01:38.475Z,100651.20
2019-04-25T14:04:08.042Z,100650.06
2019-04-25T14:06:36.497Z,100650.53
2019-04-25T14:09:07.739Z,100656.95
2019-04-25T14:11:36.200Z,100649.14
2019-04-25T14:14:04.654Z,100645.12
2019-04-25T14:16:50.569Z,100639.43
2019-04-25T14:19:36.968Z,100630.06
2019-04-25T14:22:05.927Z,100632.64
2019-04-25T14:24:35.812Z,100624.71
2019-04-25T14:27:04.524Z,100617.92
2019-04-25T14:29:33.035Z,100617.83
2019-04-25T14:32:03.229Z,100615.08
2019-04-25T14:34:32.278Z,100627.45
2019-04-25T14:37:01.892Z,100624.41
2019-04-25T14:39:30.441Z,100619.72
2019-04-25T14:41:59.059Z,100623.92
2019-04-25T14:44:28.625Z,100618.84
2019-04-25T14:46:57.353Z,100621.78
2019-04-25T14:49:26.288Z,100612.01
2019-04-25T14:51:54.772Z,100621.72
2019-04-25T14:54:29.145Z,100612.98
2019-04-25T14:57:05.438Z,100612.00
2019-04-25T14:59:34.155Z,100611.52
2019-04-25T15:02:02.674Z,100613.06
2019-04-25T15:04:31.170Z,100606.85
2019-04-25T15:06:59.650Z,100602.59
2019-04-25T15:09:28.835Z,100597.19
2019-04-25T15:11:57.349Z,100597.73
2019-04-25T15:14:26.929Z,100605.28
2019-04-25T15:16:55.523Z,100606.11
2019-04-25T15:19:24.249Z,100610.45
2019-04-25T15:21:52.895Z,100609.44
2019-04-25T15:24:21.366Z,100613.35
2019-04-25T15:26:50.169Z,100605.36
2019-04-25T15:29:18.640Z,100609.80
2019-04-25T15:31:55.762Z,100603.50
2019-04-25T15:34:17.680Z,100610.37
2019-04-25T15:36:51.916Z,100608.17
2019-04-25T15:39:42.182Z,100600.02
2019-04-25T15:42:35.319Z,100600.63
2019-04-25T15:45:20.097Z,100603.77
2019-04-25T15:47:48.628Z,100597.70
2019-04-25T15:50:17.337Z,100591.96
2019-04-25T15:52:46.168Z,100591.67
2019-04-25T15:55:14.864Z,100592.38
2019-04-25T15:57:43.378Z,100587.70
2019-04-25T16:00:18.132Z,100576.53
2019-04-25T16:02:46.599Z,100585.64
2019-04-25T16:05:15.101Z,100579.02
2019-04-25T16:07:44.001Z,100575.95
2019-04-25T16:10:13.167Z,100566.80
2019-04-25T16:12:41.657Z,100572.59
2019-04-25T16:15:10.121Z,100576.02
2019-04-25T16:17:38.672Z,100572.96
2019-04-25T16:20:07.209Z,100577.55
2019-04-25T16:22:36.623Z,100578.98
2019-04-25T16:25:05.504Z,100579.13
2019-04-25T16:27:33.998Z,100570.14
2019-04-25T16:30:02.586Z,100567.62
2019-04-25T16:32:31.345Z,100560.20
2019-04-25T16:35:00.153Z,100555.66
2019-04-25T16:37:29.147Z,100566.05
2019-04-25T16:39:57.759Z,100565.27
2019-04-25T16:42:26.202Z,100564.47
2019-04-25T16:44:54.681Z,100556.88
2019-04-25T16:47:24.796Z,100560.53
2019-04-25T16:49:53.458Z,100560.02
2019-04-25T16:52:22.407Z,100559.97
2019-04-25T16:54:51.117Z,100557.05
2019-04-25T16:57:19.683Z,100553.16
2019-04-25T16:59:48.314Z,100550.89
2019-04-25T17:02:17.042Z,100552.30
2019-04-25T17:04:45.516Z,100554.62
2019-04-25T17:07:14.582Z,100552.25
2019-04-25T17:09:43.340Z,100550.83
2019-04-25T17:12:13.429Z,100542.44
2019-04-25T17:14:55.924Z,100541.89
2019-04-25T17:17:33.745Z,100547.26
2019-04-25T17:20:11.691Z,100550.59
2019-04-25T17:22:40.322Z,100554.05
2019-04-25T17:25:08.958Z,100555.16
2019-04-25T17:27:37.820Z,100565.30
2019-04-25T17:30:06.398Z,100570.96
2019-04-25T17:32:52.860Z,100570.78
2019-04-25T17:35:32.216Z,100571.95
2019-04-25T17:38:11.528Z,100567.56
2019-04-25T17:40:40.002Z,100570.37
2019-04-25T17:43:11.342Z,100565.72
2019-04-25T17:45:39.191Z,100565.75
2019-04-25T17:48:07.674Z,100570.23
2019-04-25T17:50:36.165Z,100570.27
2019-04-25T17:53:04.644Z,100564.22
2019-04-25T17:55:33.330Z,100565.64
2019-04-25T17:58:01.964Z,100562.35
2019-04-25T18:00:41.999Z,100566.55
2019-04-25T18:03:11.465Z,100564.64
2019-04-25T18:05:40.026Z,100567.69
2019-04-25T18:08:08.960Z,100569.11
2019-04-25T18:10:37.796Z,100572.42
2019-04-25T18:13:09.323Z,100572.72
2019-04-25T18:15:43.864Z,100570.52
2019-04-25T18:18:20.424Z,100575.22
2019-04-25T18:20:49.139Z,100569.45
2019-04-25T18:23:37.082Z,100570.84
2019-04-25T18:26:30.790Z,100569.75
2019-04-25T18:29:05.829Z,100565.61
2019-04-25T18:31:35.525Z,100557.91
2019-04-25T18:34:06.791Z,100572.51
2019-04-25T18:36:41.616Z,100569.74
2019-04-25T18:39:21.212Z,100573.59
2019-04-25T18:42:10.050Z,100567.27
2019-04-25T18:44:38.533Z,100568.89
2019-04-25T18:47:07.320Z,100573.59
2019-04-25T18:49:36.359Z,100577.42
2019-04-25T18:52:09.355Z,100579.08
2019-04-25T18:54:50.557Z,100579.90
2019-04-25T18:57:31.545Z,100584.58
2019-04-25T19:00:16.173Z,100582.37
2019-04-25T19:02:54.282Z,100584.00
2019-04-25T19:05:39.831Z,100587.84
2019-04-25T19:08:09.167Z,100586.74
2019-04-25T19:10:39.446Z,100585.59
2019-04-25T19:13:12.855Z,100577.82
2019-04-25T19:15:38.830Z,100579.47
2019-04-25T19:18:08.213Z,100578.91
2019-04-25T19:20:36.878Z,100575.58
2019-04-25T19:23:05.682Z,100575.81
2019-04-25T19:25:34.165Z,100573.86
2019-04-25T19:28:02.931Z,100577.72
2019-04-25T19:30:31.626Z,100572.19
2019-04-25T19:33:00.108Z,100577.67
2019-04-25T19:35:28.843Z,100567.72
2019-04-25T19:37:58.728Z,100569.08
2019-04-25T19:40:55.345Z,100567.13
2019-04-25T19:43:28.058Z,100571.26
2019-04-25T19:45:56.687Z,100574.78
2019-04-25T19:48:25.427Z,100564.84
2019-04-25T19:50:54.039Z,100567.81
2019-04-25T19:53:22.480Z,100573.84
2019-04-25T19:55:51.792Z,100580.45
2019-04-25T19:58:20.566Z,100562.84
2019-04-25T20:00:50.919Z,100561.43
2019-04-25T20:03:49.444Z,100562.25
2019-04-25T20:06:17.223Z,100564.66
2019-04-25T20:08:56.743Z,100560.27
2019-04-25T20:11:40.876Z,100556.69
2019-04-25T20:14:09.316Z,100559.39
2019-04-25T20:16:44.886Z,100562.11
2019-04-25T20:19:13.769Z,100559.91
2019-04-25T20:21:42.225Z,100562.34
2019-04-25T20:24:10.677Z,100566.20
2019-04-25T20:26:39.128Z,100551.31
2019-04-25T20:29:07.770Z,100551.84
2019-04-25T20:31:36.223Z,100538.66
2019-04-25T20:34:06.241Z,100547.16
2019-04-25T20:36:34.824Z,100547.14
2019-04-25T20:39:03.565Z,100542.98
2019-04-25T20:41:32.022Z,100547.69
2019-04-25T20:44:00.466Z,100539.95
2019-04-25T20:46:29.332Z,100542.69
2019-04-25T20:48:57.770Z,100541.83
2019-04-25T20:51:26.270Z,100541.05
2019-04-25T20:53:54.940Z,100537.50
2019-04-25T20:56:23.404Z,100536.69
2019-04-25T20:58:51.866Z,100534.78
2019-04-25T21:01:20.324Z,100532.91
2019-04-25T21:03:49.818Z,100532.02
2019-04-25T21:06:38.599Z,100537.73
2019-04-25T21:09:07.321Z,100538.84
2019-04-25T21:11:35.816Z,100540.47
2019-04-25T21:14:22.573Z,100531.72
2019-04-25T21:16:58.589Z,100522.86
2019-04-25T21:19:29.697Z,100521.72
2019-04-25T21:21:58.765Z,100529.67
2019-04-25T21:24:27.194Z,100526.03
2019-04-25T21:26:57.072Z,100523.02
2019-04-25T21:29:25.865Z,100518.37
2019-04-25T21:31:54.692Z,100420.77
2019-04-25T21:34:26.784Z,100520.56
2019-04-25T21:36:53.502Z,100521.38
2019-04-25T21:39:28.439Z,100513.39
2019-04-25T21:42:03.213Z,100515.84
2019-04-25T21:44:31.944Z,100522.20
2019-04-25T21:47:00.646Z,100520.25
2019-04-25T21:49:29.423Z,100522.66
2019-04-25T21:51:58.902Z,100529.24
2019-04-25T21:54:27.591Z,100522.28
2019-04-25T21:56:57.425Z,100521.39
2019-04-25T21:59:26.236Z,100522.23
2019-04-25T22:01:55.417Z,100521.38
2019-04-25T22:04:24.722Z,100522.43
2019-04-25T22:06:54.159Z,100520.73
2019-04-25T22:09:23.242Z,100515.48
2019-04-25T22:11:52.016Z,100517.12
2019-04-25T22:14:20.770Z,100511.33
2019-04-25T22:16:49.995Z,100505.56
2019-04-25T22:19:18.929Z,100511.00
2019-04-25T22:21:47.681Z,100502.22
2019-04-25T22:24:16.597Z,100503.56
2019-04-25T22:26:46.910Z,100508.23
2019-04-25T22:29:15.519Z,100503.30
2019-04-25T22:31:51.532Z,100404.00
2019-04-25T22:34:29.047Z,100499.45
2019-04-25T22:37:00.556Z,100502.16
2019-04-25T22:39:29.034Z,100493.89
2019-04-25T22:41:57.713Z,100491.95
2019-04-25T22:44:26.480Z,100497.18
2019-04-25T22:46:55.497Z,100490.58
2019-04-25T22:49:23.937Z,100491.14
2019-04-25T22:51:52.652Z,100388.00
2019-04-25T22:54:22.666Z,100491.97
2019-04-25T22:56:51.256Z,100482.65
2019-04-25T22:59:19.908Z,100482.95
2019-04-25T23:02:00.806Z,100483.73
2019-04-25T23:05:05.446Z,100472.73
2019-04-25T23:07:27.942Z,100472.73
2019-04-25T23:09:56.822Z,100470.80
2019-04-25T23:12:25.637Z,100475.22
2019-04-25T23:14:54.106Z,100469.16
2019-04-25T23:17:22.787Z,100469.96
2019-04-25T23:19:51.536Z,100470.20
2019-04-25T23:22:20.006Z,100467.73
2019-04-25T23:25:00.328Z,100469.10
2019-04-25T23:27:46.662Z,100471.55
2019-04-25T23:30:17.441Z,100467.67
2019-04-25T23:32:45.996Z,100469.31
2019-04-25T23:35:27.993Z,100467.11
2019-04-25T23:37:44.692Z,100466.80
2019-04-25T23:40:13.724Z,100468.75
2019-04-25T23:42:42.563Z,100468.48
2019-04-25T23:45:11.020Z,100462.95
2019-04-25T23:47:39.571Z,100461.85
2019-04-25T23:50:08.663Z,100470.06
2019-04-25T23:52:37.139Z,100475.27
2019-04-25T23:55:06.769Z,100470.06
2019-04-25T23:57:36.035Z,100464.84
